createdAt,value
2022-08-29T00:00:51.549Z,22.36
2022-08-29T00:03:20.405Z,22.51
2022-08-29T00:05:50.097Z,22.55
2022-08-29T00:08:19.555Z,22.84
2022-08-29T00:10:49.703Z,22.84
2022-08-29T00:13:18.816Z,22.67
2022-08-29T00:15:48.013Z,22.93
2022-08-29T00:18:19.898Z,22.86
2022-08-29T00:20:49.461Z,22.62
2022-08-29T00:23:18.903Z,22.41
2022-08-29T00:25:49.812Z,22.33
2022-08-29T00:28:18.631Z,22.72
2022-08-29T00:30:47.611Z,22.88
2022-08-29T00:33:16.705Z,22.96
2022-08-29T00:35:47.148Z,22.91
2022-08-29T00:38:19.205Z,22.77
2022-08-29T00:40:52.461Z,22.81
2022-08-29T00:43:24.967Z,22.86
2022-08-29T00:46:06.763Z,22.87
2022-08-29T00:48:37.495Z,22.83
2022-08-29T00:51:10.126Z,22.72
2022-08-29T00:53:42.595Z,22.54
2022-08-29T00:56:15.985Z,22.85
2022-08-29T00:58:50.230Z,22.87
2022-08-29T01:01:20.143Z,23.07
2022-08-29T01:03:49.483Z,23.08
2022-08-29T01:06:20.330Z,22.90
2022-08-29T01:08:57.666Z,22.45
2022-08-29T01:11:48.082Z,22.56
2022-08-29T01:14:18.321Z,22.56
2022-08-29T01:16:49.724Z,22.76
2022-08-29T01:19:27.911Z,22.59
2022-08-29T01:22:04.391Z,22.72
2022-08-29T01:24:39.324Z,22.81
2022-08-29T01:27:09.249Z,22.54
2022-08-29T01:29:38.097Z,22.65
2022-08-29T01:32:07.588Z,22.43
2022-08-29T01:34:36.532Z,22.48
2022-08-29T01:37:08.426Z,22.52
2022-08-29T01:39:40.734Z,22.40
2022-08-29T01:42:12.246Z,22.36
2022-08-29T01:44:49.057Z,22.47
2022-08-29T01:47:19.580Z,22.11
2022-08-29T01:49:48.402Z,22.43
2022-08-29T01:52:17.370Z,22.35
2022-08-29T01:54:48.069Z,22.52
2022-08-29T01:57:18.244Z,22.59
2022-08-29T01:59:48.121Z,22.24
2022-08-29T02:02:21.039Z,22.65
2022-08-29T02:04:50.607Z,22.60
2022-08-29T02:07:22.010Z,22.22
2022-08-29T02:09:52.965Z,22.25
2022-08-29T02:12:22.145Z,22.58
2022-08-29T02:14:51.893Z,22.36
2022-08-29T02:17:20.894Z,22.29
2022-08-29T02:19:49.936Z,22.21
2022-08-29T02:22:21.710Z,22.30
2022-08-29T02:24:52.219Z,22.07
2022-08-29T02:27:21.332Z,22.24
2022-08-29T02:29:50.075Z,22.28
2022-08-29T02:32:18.893Z,22.26
2022-08-29T02:34:48.651Z,22.20
2022-08-29T02:37:18.388Z,22.31
2022-08-29T02:39:47.417Z,22.32
2022-08-29T02:42:17.633Z,22.34
2022-08-29T02:44:46.905Z,22.14
2022-08-29T02:47:15.837Z,22.17
2022-08-29T02:49:45.587Z,22.20
2022-08-29T02:52:14.418Z,22.25
2022-08-29T02:54:43.184Z,22.15
2022-08-29T02:57:11.998Z,22.18
2022-08-29T02:59:42.196Z,22.21
2022-08-29T03:02:11.238Z,22.19
2022-08-29T03:04:40.419Z,22.15
2022-08-29T03:07:09.500Z,22.17
2022-08-29T03:09:38.353Z,22.14
2022-08-29T03:12:07.631Z,22.30
2022-08-29T03:14:36.518Z,22.21
2022-08-29T03:17:06.711Z,22.16
2022-08-29T03:19:37.326Z,22.36
2022-08-29T03:22:07.068Z,22.19
2022-08-29T03:24:36.699Z,22.26
2022-08-29T03:27:06.031Z,22.33
2022-08-29T03:29:34.757Z,22.25
2022-08-29T03:32:03.959Z,22.29
2022-08-29T03:34:34.470Z,22.16
2022-08-29T03:37:03.477Z,22.28
2022-08-29T03:39:36.786Z,22.47
2022-08-29T03:42:06.641Z,22.39
2022-08-29T03:44:36.350Z,22.36
2022-08-29T03:47:05.804Z,22.70
2022-08-29T03:49:36.684Z,22.73
2022-08-29T03:52:06.639Z,22.30
2022-08-29T03:54:35.459Z,22.47
2022-08-29T03:57:06.037Z,22.75
2022-08-29T03:59:35.584Z,22.69
2022-08-29T04:02:05.049Z,22.71
2022-08-29T04:04:53.030Z,22.81
2022-08-29T04:07:22.119Z,22.44
2022-08-29T04:09:51.679Z,22.59
2022-08-29T04:12:21.180Z,22.91
2022-08-29T04:14:50.332Z,22.78
2022-08-29T04:17:19.679Z,22.90
2022-08-29T04:19:49.954Z,22.79
2022-08-29T04:22:18.899Z,23.09
2022-08-29T04:24:47.789Z,22.96
2022-08-29T04:27:17.304Z,22.72
2022-08-29T04:29:48.838Z,22.64
2022-08-29T04:32:17.974Z,22.66
2022-08-29T04:34:47.013Z,22.81
2022-08-29T04:37:17.382Z,22.81
2022-08-29T04:39:46.245Z,22.49
2022-08-29T04:42:19.525Z,22.80
2022-08-29T04:44:49.039Z,22.72
2022-08-29T04:47:17.975Z,22.76
2022-08-29T04:49:54.703Z,22.85
2022-08-29T04:52:28.498Z,22.70
2022-08-29T04:54:57.631Z,22.53
2022-08-29T04:57:27.037Z,22.96
2022-08-29T04:59:57.583Z,23.20
2022-08-29T05:02:27.666Z,23.08
2022-08-29T05:04:56.924Z,23.17
2022-08-29T05:07:28.602Z,23.19
2022-08-29T05:09:59.654Z,23.39
2022-08-29T05:12:30.839Z,23.54
2022-08-29T05:14:59.956Z,23.49
2022-08-29T05:17:29.674Z,23.41
2022-08-29T05:20:02.933Z,23.34
2022-08-29T05:22:34.564Z,23.67
2022-08-29T05:25:05.057Z,23.34
2022-08-29T05:27:34.048Z,23.33
2022-08-29T05:30:05.346Z,23.32
2022-08-29T05:32:34.320Z,23.43
2022-08-29T05:35:03.688Z,23.45
2022-08-29T05:37:34.150Z,23.80
2022-08-29T05:40:04.399Z,23.92
2022-08-29T05:42:33.819Z,23.87
2022-08-29T05:45:05.312Z,23.86
2022-08-29T05:47:34.901Z,23.95
2022-08-29T05:50:04.135Z,23.70
2022-08-29T05:52:36.937Z,24.42
2022-08-29T05:55:06.663Z,24.35
2022-08-29T05:57:35.619Z,24.32
2022-08-29T06:00:08.635Z,24.47
2022-08-29T06:02:41.521Z,24.47
2022-08-29T06:05:11.487Z,24.50
2022-08-29T06:07:41.958Z,24.62
2022-08-29T06:10:11.351Z,24.89
2022-08-29T06:12:40.195Z,25.00
2022-08-29T06:15:09.807Z,25.12
2022-08-29T06:17:38.995Z,24.76
2022-08-29T06:20:10.147Z,24.77
2022-08-29T06:22:41.424Z,24.57
2022-08-29T06:25:37.394Z,25.20
2022-08-29T06:27:59.657Z,24.78
2022-08-29T06:30:28.812Z,25.34
2022-08-29T06:32:59.444Z,25.73
2022-08-29T06:35:28.824Z,25.86
2022-08-29T06:37:59.579Z,25.81
2022-08-29T06:40:29.038Z,25.69
2022-08-29T06:42:58.263Z,25.93
2022-08-29T06:45:27.142Z,25.81
2022-08-29T06:47:56.757Z,25.97
2022-08-29T06:50:25.954Z,26.38
2022-08-29T06:52:55.749Z,26.44
2022-08-29T06:55:26.460Z,26.61
2022-08-29T06:57:55.594Z,26.56
2022-08-29T07:00:24.754Z,26.35
2022-08-29T07:02:54.485Z,26.60
2022-08-29T07:05:24.835Z,26.65
2022-08-29T07:07:54.068Z,26.68
2022-08-29T07:10:23.046Z,27.06
2022-08-29T07:12:54.565Z,26.83
2022-08-29T07:15:25.048Z,27.24
2022-08-29T07:18:00.219Z,27.41
2022-08-29T07:20:29.383Z,26.84
2022-08-29T07:22:58.472Z,26.78
2022-08-29T07:25:27.766Z,27.03
2022-08-29T07:27:58.263Z,27.22
2022-08-29T07:30:28.268Z,27.69
2022-08-29T07:32:57.171Z,27.51
2022-08-29T07:35:30.517Z,28.06
2022-08-29T07:38:01.269Z,28.51
2022-08-29T07:40:31.141Z,28.16
2022-08-29T07:43:01.758Z,28.40
2022-08-29T07:45:30.730Z,27.86
2022-08-29T07:47:59.738Z,27.96
2022-08-29T07:50:28.762Z,28.47
2022-08-29T07:52:58.204Z,28.20
2022-08-29T07:55:28.298Z,28.10
2022-08-29T07:57:57.200Z,28.50
2022-08-29T08:00:27.517Z,28.65
2022-08-29T08:02:56.465Z,28.70
2022-08-29T08:05:25.439Z,28.96
2022-08-29T08:07:55.669Z,28.87
2022-08-29T08:10:25.301Z,29.36
2022-08-29T08:12:54.620Z,29.64
2022-08-29T08:15:23.770Z,29.91
2022-08-29T08:17:53.987Z,29.30
2022-08-29T08:20:23.337Z,28.84
2022-08-29T08:22:52.218Z,29.80
2022-08-29T08:25:24.321Z,29.00
2022-08-29T08:27:54.004Z,30.15
2022-08-29T08:30:25.588Z,29.20
2022-08-29T08:32:55.940Z,29.39
2022-08-29T08:35:25.912Z,29.51
2022-08-29T08:37:54.978Z,29.99
2022-08-29T08:40:28.839Z,30.24
2022-08-29T08:43:00.675Z,30.48
2022-08-29T08:45:35.466Z,30.52
2022-08-29T08:48:10.380Z,30.31
2022-08-29T08:50:44.648Z,30.77
2022-08-29T08:53:19.416Z,30.99
2022-08-29T08:55:50.863Z,29.96
2022-08-29T08:58:33.185Z,30.48
2022-08-29T09:01:05.589Z,30.66
2022-08-29T09:04:05.295Z,30.94
2022-08-29T09:06:46.863Z,30.50
2022-08-29T09:09:24.493Z,31.06
2022-08-29T09:12:03.112Z,30.88
2022-08-29T09:14:48.374Z,31.78
2022-08-29T09:17:25.386Z,31.33
2022-08-29T09:19:57.748Z,31.66
2022-08-29T09:22:32.761Z,31.01
2022-08-29T09:25:06.448Z,30.97
2022-08-29T09:27:37.573Z,30.98
2022-08-29T09:30:12.135Z,31.71
2022-08-29T09:32:57.965Z,31.75
2022-08-29T09:35:34.561Z,31.33
2022-08-29T09:38:06.220Z,32.01
2022-08-29T09:40:52.635Z,32.24
2022-08-29T09:43:27.246Z,32.77
2022-08-29T09:46:08.925Z,33.10
2022-08-29T09:48:40.523Z,32.48
2022-08-29T09:51:21.100Z,32.38
2022-08-29T09:53:50.044Z,30.88
2022-08-29T09:56:22.669Z,32.06
2022-08-29T09:58:59.366Z,32.56
2022-08-29T10:01:29.914Z,32.33
2022-08-29T10:04:02.022Z,32.58
2022-08-29T10:06:36.436Z,33.78
2022-08-29T10:09:11.982Z,32.95
2022-08-29T10:11:47.704Z,33.19
2022-08-29T10:14:24.025Z,33.38
2022-08-29T10:17:21.844Z,32.69
2022-08-29T10:19:52.278Z,33.78
2022-08-29T10:22:31.193Z,35.59
2022-08-29T10:25:10.802Z,35.53
2022-08-29T10:27:49.529Z,35.34
2022-08-29T10:30:21.586Z,35.42
2022-08-29T10:33:11.657Z,35.75
2022-08-29T10:35:54.333Z,38.86
2022-08-29T10:38:42.026Z,38.55
2022-08-29T10:41:31.169Z,38.88
2022-08-29T10:47:04.255Z,38.77
2022-08-29T10:49:48.531Z,39.34
2022-08-29T10:52:26.739Z,41.99
2022-08-29T10:55:06.836Z,40.54
2022-08-29T10:57:48.331Z,42.01
2022-08-29T11:00:20.913Z,44.73
2022-08-29T11:02:59.427Z,44.59
2022-08-29T11:05:34.149Z,43.26
2022-08-29T11:08:09.788Z,45.45
2022-08-29T11:10:49.821Z,43.52
2022-08-29T11:13:24.902Z,40.61
2022-08-29T11:16:04.289Z,43.91
2022-08-29T11:18:39.720Z,45.97
2022-08-29T11:21:17.581Z,44.23
2022-08-29T11:23:50.092Z,42.97
2022-08-29T11:26:32.564Z,43.85
2022-08-29T11:29:11.056Z,45.38
2022-08-29T11:31:50.743Z,43.71
2022-08-29T11:34:31.482Z,47.05
2022-08-29T11:37:27.717Z,45.37
2022-08-29T11:40:05.234Z,44.71
2022-08-29T11:42:54.451Z,43.66
2022-08-29T11:45:35.690Z,42.77
2022-08-29T11:48:21.698Z,42.33
2022-08-29T11:50:50.996Z,42.03
2022-08-29T11:53:34.030Z,45.34
2022-08-29T11:56:27.889Z,45.70
2022-08-29T11:59:00.252Z,44.90
2022-08-29T12:02:00.748Z,41.55
2022-08-29T12:04:54.930Z,40.87
2022-08-29T12:07:34.797Z,42.69
2022-08-29T12:10:06.639Z,42.09
2022-08-29T12:12:46.444Z,43.01
2022-08-29T12:15:45.134Z,43.90
2022-08-29T12:18:47.822Z,47.87
2022-08-29T12:21:53.325Z,43.52
2022-08-29T12:24:41.731Z,42.10
2022-08-29T12:27:46.556Z,39.79
2022-08-29T12:30:15.869Z,41.68
2022-08-29T12:32:57.317Z,41.75
2022-08-29T12:35:54.801Z,39.71
2022-08-29T12:38:37.698Z,36.46
2022-08-29T12:41:28.915Z,36.33
2022-08-29T12:44:03.975Z,33.57
2022-08-29T12:46:36.403Z,34.89
2022-08-29T12:49:15.446Z,43.34
2022-08-29T12:51:51.136Z,44.58
2022-08-29T12:54:31.833Z,43.28
2022-08-29T12:57:02.630Z,45.39
2022-08-29T12:59:32.321Z,46.00
2022-08-29T13:02:01.923Z,46.51
2022-08-29T13:04:34.066Z,43.95
2022-08-29T13:07:08.740Z,38.42
2022-08-29T13:09:41.780Z,41.84
2022-08-29T13:12:17.731Z,41.09
2022-08-29T13:14:58.744Z,35.76
2022-08-29T13:17:31.013Z,36.22
2022-08-29T13:20:41.179Z,36.28
2022-08-29T13:23:17.533Z,35.70
2022-08-29T13:25:50.750Z,35.48
2022-08-29T13:28:29.673Z,34.82
2022-08-29T13:31:10.926Z,34.40
2022-08-29T13:33:41.588Z,34.22
2022-08-29T13:36:33.709Z,33.86
2022-08-29T13:39:28.150Z,33.52
2022-08-29T13:42:19.323Z,33.51
2022-08-29T13:45:13.983Z,33.00
2022-08-29T13:47:51.346Z,32.81
2022-08-29T13:50:20.464Z,32.07
2022-08-29T13:52:52.662Z,30.57
2022-08-29T13:55:24.126Z,30.96
2022-08-29T13:57:55.034Z,31.10
2022-08-29T14:00:32.229Z,31.02
2022-08-29T14:03:12.237Z,31.68
2022-08-29T14:05:41.820Z,32.25
2022-08-29T14:08:13.089Z,31.63
2022-08-29T14:10:43.784Z,31.79
2022-08-29T14:13:13.463Z,31.91
2022-08-29T14:15:43.006Z,32.24
2022-08-29T14:18:12.053Z,32.59
2022-08-29T14:20:41.488Z,31.88
2022-08-29T14:23:10.832Z,31.61
2022-08-29T14:25:40.482Z,31.69
2022-08-29T14:28:10.802Z,31.20
2022-08-29T14:30:51.690Z,30.72
2022-08-29T14:33:23.700Z,30.33
2022-08-29T14:35:52.999Z,30.66
2022-08-29T14:38:22.249Z,30.47
2022-08-29T14:40:52.520Z,30.57
2022-08-29T14:43:22.919Z,30.19
2022-08-29T14:45:52.408Z,30.91
2022-08-29T14:48:22.081Z,30.25
2022-08-29T14:50:51.067Z,30.77
2022-08-29T14:53:20.152Z,29.60
2022-08-29T14:55:52.546Z,29.44
2022-08-29T14:58:23.105Z,28.96
2022-08-29T15:00:52.706Z,29.12
2022-08-29T15:03:25.953Z,29.53
2022-08-29T15:05:55.527Z,29.47
2022-08-29T15:08:24.700Z,29.73
2022-08-29T15:10:54.300Z,30.10
2022-08-29T15:13:24.791Z,30.00
2022-08-29T15:15:54.055Z,30.27
2022-08-29T15:19:07.771Z,30.56
2022-08-29T15:21:14.018Z,30.14
2022-08-29T15:23:42.926Z,30.55
2022-08-29T15:26:12.041Z,31.00
2022-08-29T15:28:42.410Z,30.79
2022-08-29T15:31:11.427Z,31.24
2022-08-29T15:33:42.059Z,30.84
2022-08-29T15:36:11.289Z,30.94
2022-08-29T15:38:40.450Z,31.03
2022-08-29T15:41:09.545Z,31.10
2022-08-29T15:43:38.925Z,30.96
2022-08-29T15:46:09.583Z,30.79
2022-08-29T15:48:39.007Z,30.73
2022-08-29T15:51:08.356Z,30.57
2022-08-29T15:53:37.383Z,30.57
2022-08-29T15:56:06.691Z,30.41
2022-08-29T15:58:35.982Z,30.51
2022-08-29T16:01:06.103Z,30.46
2022-08-29T16:03:37.092Z,30.11
2022-08-29T16:06:06.361Z,30.55
2022-08-29T16:08:35.555Z,30.34
2022-08-29T16:11:06.172Z,30.11
2022-08-29T16:13:35.198Z,30.06
2022-08-29T16:16:06.232Z,30.07
2022-08-29T16:18:36.528Z,29.80
2022-08-29T16:21:05.722Z,29.97
2022-08-29T16:23:35.516Z,29.89
2022-08-29T16:26:04.370Z,29.81
2022-08-29T16:28:33.556Z,29.66
2022-08-29T16:31:04.941Z,29.48
2022-08-29T16:33:34.208Z,29.51
2022-08-29T16:36:06.788Z,29.71
2022-08-29T16:38:36.725Z,29.75
2022-08-29T16:41:08.880Z,29.58
2022-08-29T16:43:39.513Z,29.58
2022-08-29T16:46:09.829Z,29.62
2022-08-29T16:48:39.682Z,29.42
2022-08-29T16:51:10.858Z,29.55
2022-08-29T16:53:40.225Z,29.66
2022-08-29T16:56:12.761Z,29.50
2022-08-29T16:59:00.273Z,29.63
2022-08-29T17:01:31.357Z,29.42
2022-08-29T17:04:03.272Z,29.51
2022-08-29T17:06:34.810Z,29.33
2022-08-29T17:09:08.341Z,29.25
2022-08-29T17:11:37.447Z,29.09
2022-08-29T17:14:05.858Z,29.19
2022-08-29T17:16:36.539Z,29.46
2022-08-29T17:19:06.916Z,29.42
2022-08-29T17:21:40.188Z,29.34
2022-08-29T17:24:09.529Z,28.84
2022-08-29T17:26:41.254Z,29.06
2022-08-29T17:29:13.578Z,29.27
2022-08-29T17:31:42.805Z,29.35
2022-08-29T17:34:12.241Z,29.21
2022-08-29T17:36:44.313Z,29.34
2022-08-29T17:39:14.205Z,29.34
2022-08-29T17:41:44.990Z,29.15
2022-08-29T17:44:14.419Z,29.09
2022-08-29T17:46:45.011Z,29.15
2022-08-29T17:49:14.346Z,29.04
2022-08-29T17:51:53.577Z,29.15
2022-08-29T17:54:29.689Z,29.07
2022-08-29T17:57:01.176Z,29.01
2022-08-29T17:59:33.876Z,29.01
2022-08-29T18:02:05.236Z,29.00
2022-08-29T18:04:34.713Z,28.97
2022-08-29T18:07:05.367Z,28.91
2022-08-29T18:09:34.968Z,28.76
2022-08-29T18:12:04.513Z,28.94
2022-08-29T18:14:36.768Z,28.87
2022-08-29T18:17:05.925Z,28.82
2022-08-29T18:19:34.722Z,28.78
2022-08-29T18:22:05.210Z,28.50
2022-08-29T18:24:35.427Z,28.39
2022-08-29T18:27:04.989Z,28.42
2022-08-29T18:29:34.512Z,28.49
2022-08-29T18:32:07.323Z,28.33
2022-08-29T18:34:38.458Z,28.34
2022-08-29T18:37:09.038Z,28.47
2022-08-29T18:39:38.339Z,28.34
2022-08-29T18:42:30.496Z,28.28
2022-08-29T18:45:00.205Z,27.96
2022-08-29T18:47:29.420Z,28.19
2022-08-29T18:50:16.763Z,27.88
2022-08-29T18:52:48.171Z,27.54
2022-08-29T18:55:18.306Z,27.88
2022-08-29T18:57:48.327Z,27.98
2022-08-29T19:00:18.750Z,28.01
2022-08-29T19:02:48.140Z,27.97
2022-08-29T19:05:20.896Z,27.86
2022-08-29T19:07:51.839Z,27.76
2022-08-29T19:10:21.727Z,27.64
2022-08-29T19:12:51.095Z,27.72
2022-08-29T19:15:24.784Z,27.56
2022-08-29T19:17:58.281Z,27.54
2022-08-29T19:20:47.038Z,27.66
2022-08-29T19:23:18.587Z,27.38
2022-08-29T19:25:49.197Z,27.36
2022-08-29T19:28:21.013Z,27.59
2022-08-29T19:30:52.638Z,27.38
2022-08-29T19:33:21.912Z,27.23
2022-08-29T19:35:53.826Z,27.06
2022-08-29T19:38:25.036Z,27.00
2022-08-29T19:43:45.385Z,26.89
2022-08-29T19:46:18.185Z,27.15
2022-08-29T19:48:51.460Z,27.03
2022-08-29T19:51:24.940Z,26.99
2022-08-29T19:53:57.394Z,26.94
2022-08-29T19:56:28.588Z,26.81
2022-08-29T19:58:58.250Z,26.94
2022-08-29T20:01:28.247Z,27.10
2022-08-29T20:03:57.248Z,26.95
2022-08-29T20:06:27.773Z,26.87
2022-08-29T20:08:58.956Z,26.56
2022-08-29T20:11:29.368Z,26.96
2022-08-29T20:13:58.597Z,26.92
2022-08-29T20:16:31.159Z,26.81
2022-08-29T20:19:02.100Z,26.92
2022-08-29T20:21:33.624Z,26.69
2022-08-29T20:24:05.013Z,26.84
2022-08-29T20:26:36.784Z,26.90
2022-08-29T20:29:07.984Z,26.84
2022-08-29T20:31:37.280Z,26.80
2022-08-29T20:34:06.264Z,26.68
2022-08-29T20:36:53.862Z,26.70
2022-08-29T20:39:24.891Z,26.50
2022-08-29T20:41:56.075Z,26.51
2022-08-29T20:44:29.074Z,26.42
2022-08-29T20:47:00.545Z,26.41
2022-08-29T20:49:29.526Z,26.08
2022-08-29T20:51:58.754Z,26.24
2022-08-29T20:54:29.914Z,26.20
2022-08-29T20:56:59.478Z,26.03
2022-08-29T20:59:32.601Z,25.92
2022-08-29T21:02:04.932Z,26.03
2022-08-29T21:04:51.629Z,25.85
2022-08-29T21:07:20.824Z,25.81
2022-08-29T21:09:52.694Z,25.89
2022-08-29T21:12:22.397Z,25.82
2022-08-29T21:14:56.667Z,26.12
2022-08-29T21:17:25.511Z,25.83
2022-08-29T21:19:54.645Z,25.98
2022-08-29T21:22:25.157Z,26.02
2022-08-29T21:24:57.144Z,26.15
2022-08-29T21:27:26.135Z,26.00
2022-08-29T21:29:56.796Z,26.07
2022-08-29T21:32:25.970Z,25.72
2022-08-29T21:34:55.011Z,25.99
2022-08-29T21:37:24.729Z,25.75
2022-08-29T21:39:53.710Z,25.68
2022-08-29T21:42:23.804Z,26.05
2022-08-29T21:44:56.207Z,25.70
2022-08-29T21:47:25.204Z,25.66
2022-08-29T21:49:54.116Z,25.86
2022-08-29T21:52:23.245Z,25.66
2022-08-29T21:54:54.019Z,25.15
2022-08-29T21:57:41.908Z,25.75
2022-08-29T22:00:12.565Z,25.56
2022-08-29T22:02:42.422Z,25.49
2022-08-29T22:05:11.815Z,25.50
2022-08-29T22:07:43.055Z,25.33
2022-08-29T22:10:14.420Z,25.41
2022-08-29T22:12:44.572Z,25.23
2022-08-29T22:15:33.078Z,25.41
2022-08-29T22:18:02.128Z,24.93
2022-08-29T22:20:31.081Z,25.31
2022-08-29T22:23:00.198Z,24.89
2022-08-29T22:25:29.324Z,24.91
2022-08-29T22:27:59.865Z,25.13
2022-08-29T22:30:32.461Z,24.84
2022-08-29T22:33:02.093Z,25.13
2022-08-29T22:35:31.324Z,25.06
2022-08-29T22:38:00.320Z,24.80
2022-08-29T22:40:30.188Z,24.78
2022-08-29T22:43:00.680Z,24.87
2022-08-29T22:45:29.944Z,24.78
2022-08-29T22:48:01.746Z,24.66
2022-08-29T22:50:33.562Z,24.72
2022-08-29T22:53:03.133Z,24.72
2022-08-29T22:55:32.715Z,24.82
2022-08-29T22:58:04.805Z,24.27
2022-08-29T23:00:33.945Z,24.76
2022-08-29T23:03:03.391Z,24.24
2022-08-29T23:05:32.406Z,24.60
2022-08-29T23:08:01.262Z,24.70
2022-08-29T23:10:30.084Z,24.68
2022-08-29T23:12:58.866Z,24.39
2022-08-29T23:15:29.207Z,24.37
2022-08-29T23:17:58.780Z,24.58
2022-08-29T23:20:29.558Z,24.46
2022-08-29T23:22:59.296Z,24.33
2022-08-29T23:25:29.647Z,24.42
2022-08-29T23:27:58.590Z,24.56
2022-08-29T23:30:28.965Z,24.53
2022-08-29T23:32:57.726Z,24.32
2022-08-29T23:35:26.854Z,24.04
2022-08-29T23:37:56.891Z,24.31
2022-08-29T23:40:25.913Z,24.38
2022-08-29T23:42:56.065Z,24.45
2022-08-29T23:45:24.841Z,24.52
2022-08-29T23:47:54.960Z,24.62
2022-08-29T23:50:23.774Z,24.60
2022-08-29T23:52:52.594Z,24.30
2022-08-29T23:55:21.879Z,24.19
2022-08-29T23:57:51.359Z,24.21
